Isle of Gigha, United Kingdom
Current Conditions -  °F | °C
As of 7:50 AM on Monday 22 Dec 2014 (Local Time) from EGPI Reporting Station
Light Rain Light Rain  
Wind Chill: 42°   Ceiling: 4400
Heat Index: 48°   Visibility: 6mi
Dew Point: 46°   Wind: 18mph
Humidity: 93%   Direction: 280°W
Pressure: 29.62"   Gusts: NA
Location:  55.68°N, 5.74°W
Report Text: EGPI 220750Z AUTO 28016KT 9999 -RA FEW037/// BKN044/// 09/08 Q1003
Loading
Personal Weather Stations






























Interactive Weather Map New forecast layout! Learn more

10-Day Weather Forecast

Advertisements
Track Severe Weather on mobile